Andover, Iowa
Current Conditions -  °F | °C
As of 12:15 AM on Sunday 21 Dec 2014 (Local Time) from KSFY Reporting Station
Haze Haze  
Wind Chill: 28°   Ceiling: 1100
Heat Index: 33°   Visibility: 5mi
Dew Point: 31°   Wind: 6mph
Humidity: 90%   Direction: 160°SSE
Pressure: 30.19"   Gusts: NA
Location:  41.98°N, 90.25°W
Report Text: KSFY 210615Z AUTO 16005KT 5SM BR OVC011 01/M01 A3019 RMK AO2 T00061008
Loading
Personal Weather Stations






























Interactive Weather Map New forecast layout! Learn more

10-Day Weather Forecast

Advertisements
Track Severe Weather on mobile